sensor_id;sensor_type;location;lat;lon;timestamp;P1;durP1;ratioP1;P2;durP2;ratioP2
72949;SDS011;64868;45.710;9.590;2023-07-29T00:00:25;7.93;;;3.10;;
72949;SDS011;64868;45.710;9.590;2023-07-29T00:02:55;8.18;;;3.28;;
72949;SDS011;64868;45.710;9.590;2023-07-29T00:05:22;8.30;;;3.53;;
72949;SDS011;64868;45.710;9.590;2023-07-29T00:07:50;8.88;;;3.70;;
72949;SDS011;64868;45.710;9.590;2023-07-29T00:10:20;9.52;;;3.63;;
72949;SDS011;64868;45.710;9.590;2023-07-29T00:12:50;8.70;;;3.13;;
72949;SDS011;64868;45.710;9.590;2023-07-29T00:15:20;8.27;;;3.53;;
72949;SDS011;64868;45.710;9.590;2023-07-29T00:17:50;10.93;;;3.50;;
72949;SDS011;64868;45.710;9.590;2023-07-29T00:20:18;9.48;;;3.72;;
72949;SDS011;64868;45.710;9.590;2023-07-29T00:22:48;7.50;;;3.13;;
72949;SDS011;64868;45.710;9.590;2023-07-29T00:25:21;6.50;;;2.85;;
72949;SDS011;64868;45.710;9.590;2023-07-29T00:27:51;7.28;;;2.92;;
72949;SDS011;64868;45.710;9.590;2023-07-29T00:30:21;7.70;;;2.95;;
72949;SDS011;64868;45.710;9.590;2023-07-29T00:32:52;7.30;;;3.38;;
72949;SDS011;64868;45.710;9.590;2023-07-29T00:35:22;6.95;;;3.35;;
72949;SDS011;64868;45.710;9.590;2023-07-29T00:37:52;7.93;;;3.03;;
72949;SDS011;64868;45.710;9.590;2023-07-29T00:40:23;6.30;;;3.10;;
72949;SDS011;64868;45.710;9.590;2023-07-29T00:42:50;9.75;;;3.65;;
72949;SDS011;64868;45.710;9.590;2023-07-29T00:45:21;10.00;;;3.42;;
72949;SDS011;64868;45.710;9.590;2023-07-29T00:47:52;7.93;;;3.42;;
72949;SDS011;64868;45.710;9.590;2023-07-29T00:50:23;10.55;;;3.45;;
72949;SDS011;64868;45.710;9.590;2023-07-29T00:52:53;8.30;;;3.30;;
72949;SDS011;64868;45.710;9.590;2023-07-29T00:55:21;7.90;;;3.33;;
72949;SDS011;64868;45.710;9.590;2023-07-29T00:57:51;6.80;;;3.20;;
72949;SDS011;64868;45.710;9.590;2023-07-29T01:00:21;8.68;;;3.35;;
72949;SDS011;64868;45.710;9.590;2023-07-29T01:02:52;6.82;;;3.00;;
72949;SDS011;64868;45.710;9.590;2023-07-29T01:05:22;8.57;;;3.38;;
72949;SDS011;64868;45.710;9.590;2023-07-29T01:07:59;11.07;;;3.35;;
72949;SDS011;64868;45.710;9.590;2023-07-29T01:15:43;8.90;;;3.78;;
72949;SDS011;64868;45.710;9.590;2023-07-29T01:18:11;7.53;;;3.20;;
72949;SDS011;64868;45.710;9.590;2023-07-29T01:20:44;7.90;;;3.40;;
72949;SDS011;64868;45.710;9.590;2023-07-29T01:23:16;7.72;;;3.45;;
72949;SDS011;64868;45.710;9.590;2023-07-29T01:25:46;8.93;;;3.90;;
72949;SDS011;64868;45.710;9.590;2023-07-29T01:28:13;7.20;;;3.40;;
72949;SDS011;64868;45.710;9.590;2023-07-29T01:30:43;9.27;;;3.33;;
72949;SDS011;64868;45.710;9.590;2023-07-29T01:33:16;6.35;;;3.20;;
72949;SDS011;64868;45.710;9.590;2023-07-29T01:35:45;8.35;;;3.53;;
72949;SDS011;64868;45.710;9.590;2023-07-29T01:38:17;10.02;;;3.58;;
72949;SDS011;64868;45.710;9.590;2023-07-29T01:40:47;8.25;;;3.50;;
72949;SDS011;64868;45.710;9.590;2023-07-29T01:43:16;8.35;;;3.85;;
72949;SDS011;64868;45.710;9.590;2023-07-29T01:45:45;12.52;;;3.30;;
72949;SDS011;64868;45.710;9.590;2023-07-29T01:48:11;7.07;;;3.10;;
72949;SDS011;64868;45.710;9.590;2023-07-29T01:50:41;9.07;;;3.22;;
72949;SDS011;64868;45.710;9.590;2023-07-29T01:53:11;7.25;;;3.38;;
72949;SDS011;64868;45.710;9.590;2023-07-29T01:55:41;7.57;;;3.28;;
72949;SDS011;64868;45.710;9.590;2023-07-29T01:58:11;5.95;;;2.80;;
72949;SDS011;64868;45.710;9.590;2023-07-29T02:00:39;9.25;;;3.35;;
72949;SDS011;64868;45.710;9.590;2023-07-29T02:03:07;7.80;;;3.83;;
72949;SDS011;64868;45.710;9.590;2023-07-29T02:05:37;7.70;;;3.50;;
72949;SDS011;64868;45.710;9.590;2023-07-29T02:08:07;7.63;;;3.22;;
72949;SDS011;64868;45.710;9.590;2023-07-29T02:10:35;8.23;;;3.80;;
72949;SDS011;64868;45.710;9.590;2023-07-29T02:13:05;8.48;;;3.42;;
72949;SDS011;64868;45.710;9.590;2023-07-29T02:15:35;9.23;;;3.20;;
72949;SDS011;64868;45.710;9.590;2023-07-29T02:18:05;10.02;;;2.88;;
72949;SDS011;64868;45.710;9.590;2023-07-29T02:20:35;7.10;;;3.30;;
72949;SDS011;64868;45.710;9.590;2023-07-29T02:23:05;8.57;;;3.58;;
72949;SDS011;64868;45.710;9.590;2023-07-29T02:25:31;11.50;;;3.20;;
72949;SDS011;64868;45.710;9.590;2023-07-29T02:28:00;8.07;;;3.13;;
72949;SDS011;64868;45.710;9.590;2023-07-29T02:30:31;8.00;;;3.40;;
72949;SDS011;64868;45.710;9.590;2023-07-29T02:32:58;9.02;;;3.35;;
72949;SDS011;64868;45.710;9.590;2023-07-29T02:35:28;7.47;;;3.30;;
72949;SDS011;64868;45.710;9.590;2023-07-29T02:37:58;6.70;;;3.13;;
72949;SDS011;64868;45.710;9.590;2023-07-29T02:40:26;7.50;;;3.55;;
72949;SDS011;64868;45.710;9.590;2023-07-29T02:42:56;8.63;;;3.75;;
72949;SDS011;64868;45.710;9.590;2023-07-29T02:45:24;7.85;;;3.10;;
72949;SDS011;64868;45.710;9.590;2023-07-29T02:47:51;7.28;;;3.67;;
72949;SDS011;64868;45.710;9.590;2023-07-29T02:50:21;6.90;;;3.53;;
72949;SDS011;64868;45.710;9.590;2023-07-29T02:52:51;7.63;;;3.50;;
72949;SDS011;64868;45.710;9.590;2023-07-29T02:55:22;7.78;;;3.33;;
72949;SDS011;64868;45.710;9.590;2023-07-29T02:57:49;6.93;;;3.10;;
72949;SDS011;64868;45.710;9.590;2023-07-29T03:00:19;7.00;;;3.22;;
72949;SDS011;64868;45.710;9.590;2023-07-29T03:02:49;7.10;;;3.20;;
72949;SDS011;64868;45.710;9.590;2023-07-29T03:05:20;5.93;;;3.00;;
72949;SDS011;64868;45.710;9.590;2023-07-29T03:07:50;9.57;;;3.45;;
72949;SDS011;64868;45.710;9.590;2023-07-29T03:10:17;10.13;;;3.83;;
72949;SDS011;64868;45.710;9.590;2023-07-29T03:12:47;6.65;;;3.28;;
72949;SDS011;64868;45.710;9.590;2023-07-29T03:15:12;8.38;;;3.38;;
72949;SDS011;64868;45.710;9.590;2023-07-29T03:17:42;8.73;;;3.40;;
72949;SDS011;64868;45.710;9.590;2023-07-29T03:20:10;7.05;;;3.20;;
72949;SDS011;64868;45.710;9.590;2023-07-29T03:22:40;8.90;;;3.20;;
72949;SDS011;64868;45.710;9.590;2023-07-29T03:25:10;9.77;;;3.40;;
72949;SDS011;64868;45.710;9.590;2023-07-29T03:27:40;9.35;;;3.55;;
72949;SDS011;64868;45.710;9.590;2023-07-29T03:30:10;7.20;;;3.10;;
72949;SDS011;64868;45.710;9.590;2023-07-29T03:32:38;8.75;;;3.63;;
72949;SDS011;64868;45.710;9.590;2023-07-29T03:35:08;8.95;;;3.70;;
72949;SDS011;64868;45.710;9.590;2023-07-29T03:37:36;7.38;;;3.15;;
72949;SDS011;64868;45.710;9.590;2023-07-29T03:40:03;7.05;;;2.90;;
72949;SDS011;64868;45.710;9.590;2023-07-29T03:42:33;8.45;;;3.67;;
72949;SDS011;64868;45.710;9.590;2023-07-29T03:45:04;8.15;;;3.33;;
72949;SDS011;64868;45.710;9.590;2023-07-29T03:47:29;6.53;;;3.00;;
72949;SDS011;64868;45.710;9.590;2023-07-29T03:49:59;12.93;;;3.45;;
72949;SDS011;64868;45.710;9.590;2023-07-29T03:52:29;7.50;;;3.42;;
72949;SDS011;64868;45.710;9.590;2023-07-29T03:54:57;9.70;;;3.45;;
72949;SDS011;64868;45.710;9.590;2023-07-29T03:57:27;7.40;;;3.55;;
72949;SDS011;64868;45.710;9.590;2023-07-29T03:59:57;8.18;;;3.25;;
72949;SDS011;64868;45.710;9.590;2023-07-29T04:02:27;10.05;;;3.30;;
72949;SDS011;64868;45.710;9.590;2023-07-29T04:04:57;7.18;;;3.15;;
72949;SDS011;64868;45.710;9.590;2023-07-29T04:07:27;8.15;;;3.38;;
72949;SDS011;64868;45.710;9.590;2023-07-29T04:09:57;7.88;;;3.35;;
72949;SDS011;64868;45.710;9.590;2023-07-29T04:12:28;8.40;;;3.33;;
72949;SDS011;64868;45.710;9.590;2023-07-29T04:14:58;7.20;;;3.28;;
72949;SDS011;64868;45.710;9.590;2023-07-29T04:17:28;8.35;;;3.47;;
72949;SDS011;64868;45.710;9.590;2023-07-29T04:19:53;7.10;;;3.40;;
72949;SDS011;64868;45.710;9.590;2023-07-29T04:22:21;10.80;;;3.47;;
72949;SDS011;64868;45.710;9.590;2023-07-29T04:24:51;12.07;;;3.30;;
72949;SDS011;64868;45.710;9.590;2023-07-29T04:27:18;10.95;;;3.50;;
72949;SDS011;64868;45.710;9.590;2023-07-29T04:29:46;8.15;;;3.20;;
72949;SDS011;64868;45.710;9.590;2023-07-29T04:32:16;8.00;;;3.10;;
72949;SDS011;64868;45.710;9.590;2023-07-29T04:34:44;10.55;;;3.75;;
72949;SDS011;64868;45.710;9.590;2023-07-29T04:37:14;8.13;;;3.05;;
72949;SDS011;64868;45.710;9.590;2023-07-29T04:39:44;12.32;;;3.10;;
72949;SDS011;64868;45.710;9.590;2023-07-29T04:42:14;8.35;;;3.28;;
72949;SDS011;64868;45.710;9.590;2023-07-29T04:44:41;18.55;;;3.42;;
72949;SDS011;64868;45.710;9.590;2023-07-29T04:47:12;7.97;;;3.33;;
72949;SDS011;64868;45.710;9.590;2023-07-29T04:49:42;9.25;;;3.15;;
72949;SDS011;64868;45.710;9.590;2023-07-29T04:52:12;9.27;;;3.30;;
72949;SDS011;64868;45.710;9.590;2023-07-29T04:54:42;8.85;;;3.38;;
72949;SDS011;64868;45.710;9.590;2023-07-29T04:57:12;16.92;;;3.75;;
72949;SDS011;64868;45.710;9.590;2023-07-29T04:59:42;12.02;;;3.33;;
72949;SDS011;64868;45.710;9.590;2023-07-29T05:02:12;10.50;;;3.38;;
72949;SDS011;64868;45.710;9.590;2023-07-29T05:04:42;7.47;;;2.88;;
72949;SDS011;64868;45.710;9.590;2023-07-29T05:07:09;6.35;;;3.00;;
72949;SDS011;64868;45.710;9.590;2023-07-29T05:09:40;9.55;;;3.65;;
72949;SDS011;64868;45.710;9.590;2023-07-29T05:12:10;8.18;;;3.03;;
72949;SDS011;64868;45.710;9.590;2023-07-29T05:14:40;8.10;;;3.13;;
72949;SDS011;64868;45.710;9.590;2023-07-29T05:17:08;9.07;;;3.35;;
72949;SDS011;64868;45.710;9.590;2023-07-29T05:19:38;10.57;;;3.63;;
72949;SDS011;64868;45.710;9.590;2023-07-29T05:22:08;11.02;;;3.30;;
72949;SDS011;64868;45.710;9.590;2023-07-29T05:24:38;11.35;;;3.50;;
72949;SDS011;64868;45.710;9.590;2023-07-29T05:27:05;9.05;;;3.30;;
72949;SDS011;64868;45.710;9.590;2023-07-29T05:29:35;7.70;;;3.25;;
72949;SDS011;64868;45.710;9.590;2023-07-29T05:32:06;8.85;;;3.00;;
72949;SDS011;64868;45.710;9.590;2023-07-29T05:34:36;10.07;;;3.05;;
72949;SDS011;64868;45.710;9.590;2023-07-29T05:37:03;8.20;;;3.22;;
72949;SDS011;64868;45.710;9.590;2023-07-29T05:39:31;7.95;;;2.90;;
72949;SDS011;64868;45.710;9.590;2023-07-29T05:42:01;9.63;;;3.15;;
72949;SDS011;64868;45.710;9.590;2023-07-29T05:44:35;7.70;;;3.05;;
72949;SDS011;64868;45.710;9.590;2023-07-29T05:47:05;8.50;;;3.40;;
72949;SDS011;64868;45.710;9.590;2023-07-29T05:49:35;7.47;;;3.08;;
72949;SDS011;64868;45.710;9.590;2023-07-29T05:52:05;9.93;;;3.00;;
72949;SDS011;64868;45.710;9.590;2023-07-29T05:54:35;8.10;;;2.80;;
72949;SDS011;64868;45.710;9.590;2023-07-29T05:57:05;8.13;;;2.92;;
72949;SDS011;64868;45.710;9.590;2023-07-29T05:59:36;8.20;;;3.05;;
72949;SDS011;64868;45.710;9.590;2023-07-29T06:02:04;8.70;;;2.95;;
72949;SDS011;64868;45.710;9.590;2023-07-29T06:04:34;8.55;;;2.88;;
72949;SDS011;64868;45.710;9.590;2023-07-29T06:07:04;7.55;;;3.03;;
72949;SDS011;64868;45.710;9.590;2023-07-29T06:09:34;7.57;;;3.10;;
72949;SDS011;64868;45.710;9.590;2023-07-29T06:12:01;8.82;;;3.10;;
72949;SDS011;64868;45.710;9.590;2023-07-29T06:14:32;8.55;;;2.83;;
72949;SDS011;64868;45.710;9.590;2023-07-29T06:16:59;8.13;;;2.75;;
72949;SDS011;64868;45.710;9.590;2023-07-29T06:19:29;6.47;;;2.65;;
72949;SDS011;64868;45.710;9.590;2023-07-29T06:21:59;9.98;;;3.13;;
72949;SDS011;64868;45.710;9.590;2023-07-29T06:24:30;7.05;;;3.10;;
72949;SDS011;64868;45.710;9.590;2023-07-29T06:27:00;9.65;;;2.60;;
72949;SDS011;64868;45.710;9.590;2023-07-29T06:29:30;8.40;;;2.80;;
72949;SDS011;64868;45.710;9.590;2023-07-29T06:31:58;6.53;;;2.75;;
72949;SDS011;64868;45.710;9.590;2023-07-29T06:34:28;7.55;;;2.97;;
72949;SDS011;64868;45.710;9.590;2023-07-29T06:36:58;10.48;;;3.05;;
72949;SDS011;64868;45.710;9.590;2023-07-29T06:39:25;9.30;;;2.75;;
72949;SDS011;64868;45.710;9.590;2023-07-29T06:41:53;7.03;;;2.72;;
72949;SDS011;64868;45.710;9.590;2023-07-29T06:44:21;7.70;;;2.72;;
72949;SDS011;64868;45.710;9.590;2023-07-29T06:46:48;6.70;;;2.78;;
72949;SDS011;64868;45.710;9.590;2023-07-29T06:49:18;7.38;;;2.70;;
72949;SDS011;64868;45.710;9.590;2023-07-29T06:51:48;6.43;;;2.55;;
72949;SDS011;64868;45.710;9.590;2023-07-29T06:54:16;6.50;;;2.60;;
72949;SDS011;64868;45.710;9.590;2023-07-29T06:56:47;6.18;;;2.50;;
72949;SDS011;64868;45.710;9.590;2023-07-29T06:59:17;8.73;;;2.72;;
72949;SDS011;64868;45.710;9.590;2023-07-29T07:01:47;7.70;;;2.72;;
72949;SDS011;64868;45.710;9.590;2023-07-29T07:04:17;7.47;;;3.05;;
72949;SDS011;64868;45.710;9.590;2023-07-29T07:06:47;9.02;;;2.70;;
72949;SDS011;64868;45.710;9.590;2023-07-29T07:09:15;7.07;;;3.13;;
72949;SDS011;64868;45.710;9.590;2023-07-29T07:11:43;7.27;;;2.60;;
72949;SDS011;64868;45.710;9.590;2023-07-29T07:14:13;7.97;;;2.78;;
72949;SDS011;64868;45.710;9.590;2023-07-29T07:16:43;8.18;;;3.17;;
72949;SDS011;64868;45.710;9.590;2023-07-29T07:19:13;6.30;;;2.85;;
72949;SDS011;64868;45.710;9.590;2023-07-29T07:21:43;7.60;;;3.03;;
72949;SDS011;64868;45.710;9.590;2023-07-29T07:24:13;12.77;;;3.42;;
72949;SDS011;64868;45.710;9.590;2023-07-29T07:26:43;8.75;;;3.00;;
72949;SDS011;64868;45.710;9.590;2023-07-29T07:29:11;9.40;;;2.90;;
72949;SDS011;64868;45.710;9.590;2023-07-29T07:31:41;6.45;;;2.92;;
72949;SDS011;64868;45.710;9.590;2023-07-29T07:34:16;6.20;;;2.90;;
72949;SDS011;64868;45.710;9.590;2023-07-29T07:36:44;6.97;;;3.17;;
72949;SDS011;64868;45.710;9.590;2023-07-29T07:39:12;9.32;;;3.10;;
72949;SDS011;64868;45.710;9.590;2023-07-29T07:41:40;8.40;;;3.75;;
72949;SDS011;64868;45.710;9.590;2023-07-29T07:44:10;8.20;;;3.22;;
72949;SDS011;64868;45.710;9.590;2023-07-29T07:46:40;8.25;;;3.03;;
72949;SDS011;64868;45.710;9.590;2023-07-29T07:49:10;8.57;;;3.20;;
72949;SDS011;64868;45.710;9.590;2023-07-29T07:51:40;9.77;;;2.92;;
72949;SDS011;64868;45.710;9.590;2023-07-29T07:54:10;8.60;;;3.05;;
72949;SDS011;64868;45.710;9.590;2023-07-29T07:56:40;7.15;;;2.88;;
72949;SDS011;64868;45.710;9.590;2023-07-29T07:59:08;9.15;;;3.13;;
72949;SDS011;64868;45.710;9.590;2023-07-29T08:01:38;7.82;;;2.80;;
72949;SDS011;64868;45.710;9.590;2023-07-29T08:04:06;10.10;;;3.63;;
72949;SDS011;64868;45.710;9.590;2023-07-29T08:06:33;8.55;;;2.97;;
72949;SDS011;64868;45.710;9.590;2023-07-29T08:09:03;10.02;;;2.67;;
72949;SDS011;64868;45.710;9.590;2023-07-29T08:11:34;7.78;;;2.58;;
72949;SDS011;64868;45.710;9.590;2023-07-29T08:14:01;7.43;;;2.95;;
72949;SDS011;64868;45.710;9.590;2023-07-29T08:16:31;11.40;;;3.20;;
72949;SDS011;64868;45.710;9.590;2023-07-29T08:19:01;8.00;;;2.92;;
72949;SDS011;64868;45.710;9.590;2023-07-29T08:21:31;8.60;;;3.03;;
72949;SDS011;64868;45.710;9.590;2023-07-29T08:24:02;11.23;;;2.83;;
72949;SDS011;64868;45.710;9.590;2023-07-29T08:26:32;8.35;;;2.70;;
72949;SDS011;64868;45.710;9.590;2023-07-29T08:28:59;8.95;;;3.72;;
72949;SDS011;64868;45.710;9.590;2023-07-29T08:31:30;8.02;;;2.95;;
72949;SDS011;64868;45.710;9.590;2023-07-29T08:34:01;8.32;;;2.45;;
72949;SDS011;64868;45.710;9.590;2023-07-29T08:36:31;7.00;;;2.13;;
72949;SDS011;64868;45.710;9.590;2023-07-29T08:39:01;7.95;;;2.50;;
72949;SDS011;64868;45.710;9.590;2023-07-29T08:41:29;7.57;;;2.22;;
72949;SDS011;64868;45.710;9.590;2023-07-29T08:44:01;8.43;;;2.30;;
72949;SDS011;64868;45.710;9.590;2023-07-29T08:46:31;9.95;;;2.55;;
72949;SDS011;64868;45.710;9.590;2023-07-29T08:49:02;5.65;;;2.10;;
72949;SDS011;64868;45.710;9.590;2023-07-29T08:51:32;8.82;;;2.63;;
72949;SDS011;64868;45.710;9.590;2023-07-29T08:53:59;8.35;;;2.15;;
72949;SDS011;64868;45.710;9.590;2023-07-29T08:56:27;7.88;;;2.60;;
72949;SDS011;64868;45.710;9.590;2023-07-29T08:58:55;7.72;;;2.50;;
72949;SDS011;64868;45.710;9.590;2023-07-29T09:01:25;8.30;;;2.28;;
72949;SDS011;64868;45.710;9.590;2023-07-29T09:03:52;8.00;;;2.60;;
72949;SDS011;64868;45.710;9.590;2023-07-29T09:06:22;7.25;;;2.63;;
72949;SDS011;64868;45.710;9.590;2023-07-29T09:08:53;7.05;;;2.33;;
72949;SDS011;64868;45.710;9.590;2023-07-29T09:11:23;8.35;;;2.40;;
72949;SDS011;64868;45.710;9.590;2023-07-29T09:13:53;8.18;;;2.60;;
72949;SDS011;64868;45.710;9.590;2023-07-29T09:16:21;13.68;;;2.92;;
72949;SDS011;64868;45.710;9.590;2023-07-29T09:18:49;6.22;;;2.55;;
72949;SDS011;64868;45.710;9.590;2023-07-29T09:21:26;8.93;;;2.35;;
72949;SDS011;64868;45.710;9.590;2023-07-29T09:23:56;10.20;;;2.58;;
72949;SDS011;64868;45.710;9.590;2023-07-29T09:26:26;8.32;;;2.60;;
72949;SDS011;64868;45.710;9.590;2023-07-29T09:28:57;8.55;;;2.97;;
72949;SDS011;64868;45.710;9.590;2023-07-29T09:31:26;7.82;;;2.90;;
72949;SDS011;64868;45.710;9.590;2023-07-29T09:33:58;10.23;;;2.35;;
72949;SDS011;64868;45.710;9.590;2023-07-29T09:36:28;6.88;;;2.40;;
72949;SDS011;64868;45.710;9.590;2023-07-29T09:38:57;8.75;;;2.42;;
72949;SDS011;64868;45.710;9.590;2023-07-29T09:41:28;8.93;;;2.80;;
72949;SDS011;64868;45.710;9.590;2023-07-29T09:44:04;7.38;;;2.58;;
72949;SDS011;64868;45.710;9.590;2023-07-29T09:46:35;6.45;;;2.55;;
72949;SDS011;64868;45.710;9.590;2023-07-29T09:49:05;6.85;;;2.60;;
72949;SDS011;64868;45.710;9.590;2023-07-29T09:51:41;6.93;;;2.67;;
72949;SDS011;64868;45.710;9.590;2023-07-29T09:54:11;8.70;;;2.90;;
72949;SDS011;64868;45.710;9.590;2023-07-29T09:56:42;8.43;;;2.72;;
72949;SDS011;64868;45.710;9.590;2023-07-29T09:59:12;7.47;;;2.60;;
72949;SDS011;64868;45.710;9.590;2023-07-29T10:01:45;14.20;;;2.90;;
72949;SDS011;64868;45.710;9.590;2023-07-29T10:04:12;8.90;;;3.13;;
72949;SDS011;64868;45.710;9.590;2023-07-29T10:06:43;7.95;;;2.95;;
72949;SDS011;64868;45.710;9.590;2023-07-29T10:09:12;12.10;;;3.33;;
72949;SDS011;64868;45.710;9.590;2023-07-29T10:11:42;6.68;;;2.47;;
72949;SDS011;64868;45.710;9.590;2023-07-29T10:14:11;8.45;;;2.58;;
72949;SDS011;64868;45.710;9.590;2023-07-29T10:16:41;6.85;;;2.53;;
72949;SDS011;64868;45.710;9.590;2023-07-29T10:19:11;11.40;;;2.70;;
72949;SDS011;64868;45.710;9.590;2023-07-29T10:21:41;9.00;;;2.75;;
72949;SDS011;64868;45.710;9.590;2023-07-29T10:24:14;8.77;;;3.05;;
72949;SDS011;64868;45.710;9.590;2023-07-29T10:26:41;7.57;;;2.92;;
72949;SDS011;64868;45.710;9.590;2023-07-29T10:29:12;8.45;;;3.10;;
72949;SDS011;64868;45.710;9.590;2023-07-29T10:31:39;7.72;;;3.40;;
72949;SDS011;64868;45.710;9.590;2023-07-29T10:34:09;9.07;;;3.40;;
72949;SDS011;64868;45.710;9.590;2023-07-29T10:36:41;7.60;;;3.17;;
72949;SDS011;64868;45.710;9.590;2023-07-29T10:39:08;8.40;;;3.30;;
72949;SDS011;64868;45.710;9.590;2023-07-29T10:41:57;8.98;;;3.05;;
72949;SDS011;64868;45.710;9.590;2023-07-29T10:45:16;7.85;;;3.08;;
72949;SDS011;64868;45.710;9.590;2023-07-29T10:47:25;9.05;;;3.03;;
72949;SDS011;64868;45.710;9.590;2023-07-29T10:49:55;8.38;;;2.97;;
72949;SDS011;64868;45.710;9.590;2023-07-29T10:55:04;12.10;;;2.70;;
72949;SDS011;64868;45.710;9.590;2023-07-29T10:57:52;9.02;;;2.85;;
72949;SDS011;64868;45.710;9.590;2023-07-29T11:00:22;7.13;;;2.95;;
72949;SDS011;64868;45.710;9.590;2023-07-29T11:02:59;9.73;;;2.45;;
72949;SDS011;64868;45.710;9.590;2023-07-29T11:05:46;8.73;;;2.78;;
72949;SDS011;64868;45.710;9.590;2023-07-29T11:08:21;14.10;;;3.35;;
72949;SDS011;64868;45.710;9.590;2023-07-29T11:11:00;10.57;;;3.08;;
72949;SDS011;64868;45.710;9.590;2023-07-29T11:13:29;13.93;;;3.08;;
72949;SDS011;64868;45.710;9.590;2023-07-29T11:15:59;14.18;;;3.50;;
72949;SDS011;64868;45.710;9.590;2023-07-29T11:18:27;10.20;;;3.00;;
72949;SDS011;64868;45.710;9.590;2023-07-29T11:21:14;7.90;;;2.90;;
72949;SDS011;64868;45.710;9.590;2023-07-29T11:23:44;9.98;;;3.15;;
72949;SDS011;64868;45.710;9.590;2023-07-29T11:26:12;8.65;;;2.70;;
72949;SDS011;64868;45.710;9.590;2023-07-29T11:28:40;9.38;;;3.00;;
72949;SDS011;64868;45.710;9.590;2023-07-29T11:31:08;6.70;;;2.85;;
72949;SDS011;64868;45.710;9.590;2023-07-29T11:33:39;9.98;;;2.55;;
72949;SDS011;64868;45.710;9.590;2023-07-29T11:36:16;7.57;;;2.42;;
72949;SDS011;64868;45.710;9.590;2023-07-29T11:38:45;7.93;;;2.60;;
72949;SDS011;64868;45.710;9.590;2023-07-29T11:41:10;10.30;;;2.60;;
72949;SDS011;64868;45.710;9.590;2023-07-29T11:43:40;9.15;;;2.53;;
72949;SDS011;64868;45.710;9.590;2023-07-29T11:46:10;7.03;;;2.60;;
72949;SDS011;64868;45.710;9.590;2023-07-29T11:48:40;7.32;;;2.25;;
72949;SDS011;64868;45.710;9.590;2023-07-29T11:51:11;5.95;;;2.33;;
72949;SDS011;64868;45.710;9.590;2023-07-29T11:53:41;7.18;;;2.40;;
72949;SDS011;64868;45.710;9.590;2023-07-29T11:56:09;7.50;;;2.50;;
72949;SDS011;64868;45.710;9.590;2023-07-29T11:58:40;8.30;;;2.50;;
72949;SDS011;64868;45.710;9.590;2023-07-29T12:01:09;8.80;;;2.78;;
72949;SDS011;64868;45.710;9.590;2023-07-29T12:06:04;7.70;;;2.50;;
72949;SDS011;64868;45.710;9.590;2023-07-29T12:08:34;7.53;;;2.40;;
72949;SDS011;64868;45.710;9.590;2023-07-29T12:11:04;7.10;;;2.53;;
72949;SDS011;64868;45.710;9.590;2023-07-29T12:13:35;7.20;;;2.97;;
72949;SDS011;64868;45.710;9.590;2023-07-29T12:16:05;8.98;;;2.50;;
72949;SDS011;64868;45.710;9.590;2023-07-29T12:18:32;7.15;;;2.80;;
72949;SDS011;64868;45.710;9.590;2023-07-29T12:20:57;7.03;;;2.60;;
72949;SDS011;64868;45.710;9.590;2023-07-29T12:23:27;6.38;;;2.50;;
72949;SDS011;64868;45.710;9.590;2023-07-29T12:25:58;7.28;;;2.80;;
72949;SDS011;64868;45.710;9.590;2023-07-29T12:28:26;9.88;;;2.47;;
72949;SDS011;64868;45.710;9.590;2023-07-29T12:30:56;6.30;;;2.53;;
72949;SDS011;64868;45.710;9.590;2023-07-29T12:33:33;9.35;;;2.63;;
72949;SDS011;64868;45.710;9.590;2023-07-29T12:36:03;6.07;;;2.33;;
72949;SDS011;64868;45.710;9.590;2023-07-29T12:38:31;6.95;;;2.53;;
72949;SDS011;64868;45.710;9.590;2023-07-29T12:40:58;6.23;;;2.37;;
72949;SDS011;64868;45.710;9.590;2023-07-29T12:43:26;8.18;;;2.60;;
72949;SDS011;64868;45.710;9.590;2023-07-29T12:45:56;9.55;;;2.55;;
72949;SDS011;64868;45.710;9.590;2023-07-29T12:48:26;7.63;;;2.60;;
72949;SDS011;64868;45.710;9.590;2023-07-29T12:50:54;8.60;;;2.97;;
72949;SDS011;64868;45.710;9.590;2023-07-29T12:53:22;8.37;;;2.50;;
72949;SDS011;64868;45.710;9.590;2023-07-29T12:55:52;7.97;;;2.60;;
72949;SDS011;64868;45.710;9.590;2023-07-29T12:58:22;7.60;;;2.78;;
72949;SDS011;64868;45.710;9.590;2023-07-29T13:00:49;8.20;;;2.70;;
72949;SDS011;64868;45.710;9.590;2023-07-29T13:03:19;10.07;;;2.90;;
72949;SDS011;64868;45.710;9.590;2023-07-29T13:05:47;8.27;;;2.33;;
72949;SDS011;64868;45.710;9.590;2023-07-29T13:08:12;8.02;;;2.85;;
72949;SDS011;64868;45.710;9.590;2023-07-29T13:10:42;5.07;;;2.13;;
72949;SDS011;64868;45.710;9.590;2023-07-29T13:13:10;8.75;;;2.83;;
72949;SDS011;64868;45.710;9.590;2023-07-29T13:15:38;8.25;;;2.63;;
72949;SDS011;64868;45.710;9.590;2023-07-29T13:18:06;6.55;;;2.13;;
72949;SDS011;64868;45.710;9.590;2023-07-29T13:23:01;6.55;;;2.47;;
72949;SDS011;64868;45.710;9.590;2023-07-29T13:25:28;7.38;;;3.20;;
72949;SDS011;64868;45.710;9.590;2023-07-29T13:27:56;7.43;;;2.78;;
72949;SDS011;64868;45.710;9.590;2023-07-29T13:30:26;8.05;;;2.78;;
72949;SDS011;64868;45.710;9.590;2023-07-29T13:32:56;6.97;;;2.70;;
72949;SDS011;64868;45.710;9.590;2023-07-29T13:35:24;11.80;;;2.70;;
72949;SDS011;64868;45.710;9.590;2023-07-29T13:37:54;6.68;;;2.60;;
72949;SDS011;64868;45.710;9.590;2023-07-29T13:40:24;9.73;;;2.80;;
72949;SDS011;64868;45.710;9.590;2023-07-29T13:42:52;7.10;;;2.83;;
72949;SDS011;64868;45.710;9.590;2023-07-29T13:45:20;8.15;;;2.67;;
72949;SDS011;64868;45.710;9.590;2023-07-29T13:47:50;10.75;;;2.80;;
72949;SDS011;64868;45.710;9.590;2023-07-29T13:50:20;7.03;;;2.65;;
72949;SDS011;64868;45.710;9.590;2023-07-29T13:52:50;7.85;;;2.85;;
72949;SDS011;64868;45.710;9.590;2023-07-29T13:55:18;6.72;;;2.72;;
72949;SDS011;64868;45.710;9.590;2023-07-29T13:57:48;7.18;;;2.70;;
72949;SDS011;64868;45.710;9.590;2023-07-29T14:00:18;7.07;;;2.58;;
72949;SDS011;64868;45.710;9.590;2023-07-29T14:02:46;7.60;;;2.67;;
72949;SDS011;64868;45.710;9.590;2023-07-29T14:05:16;7.57;;;2.60;;
72949;SDS011;64868;45.710;9.590;2023-07-29T14:07:44;8.93;;;2.85;;
72949;SDS011;64868;45.710;9.590;2023-07-29T14:10:09;6.00;;;2.60;;
72949;SDS011;64868;45.710;9.590;2023-07-29T14:12:36;7.75;;;2.63;;
72949;SDS011;64868;45.710;9.590;2023-07-29T14:15:06;7.75;;;3.08;;
72949;SDS011;64868;45.710;9.590;2023-07-29T14:17:35;7.40;;;2.83;;
72949;SDS011;64868;45.710;9.590;2023-07-29T14:20:05;8.13;;;2.80;;
72949;SDS011;64868;45.710;9.590;2023-07-29T14:22:32;8.85;;;3.35;;
72949;SDS011;64868;45.710;9.590;2023-07-29T14:25:02;7.95;;;2.80;;
72949;SDS011;64868;45.710;9.590;2023-07-29T14:27:30;8.00;;;2.88;;
72949;SDS011;64868;45.710;9.590;2023-07-29T14:29:58;7.35;;;2.83;;
72949;SDS011;64868;45.710;9.590;2023-07-29T14:32:26;5.97;;;2.80;;
72949;SDS011;64868;45.710;9.590;2023-07-29T14:34:56;7.30;;;2.60;;
72949;SDS011;64868;45.710;9.590;2023-07-29T14:37:26;8.00;;;2.78;;
72949;SDS011;64868;45.710;9.590;2023-07-29T14:39:56;8.98;;;3.03;;
72949;SDS011;64868;45.710;9.590;2023-07-29T14:42:26;8.55;;;2.67;;
72949;SDS011;64868;45.710;9.590;2023-07-29T14:47:21;7.53;;;2.97;;
72949;SDS011;64868;45.710;9.590;2023-07-29T14:49:52;6.82;;;2.50;;
72949;SDS011;64868;45.710;9.590;2023-07-29T14:52:22;6.05;;;2.38;;
72949;SDS011;64868;45.710;9.590;2023-07-29T14:54:52;8.27;;;3.03;;
72949;SDS011;64868;45.710;9.590;2023-07-29T14:57:22;8.13;;;3.10;;
72949;SDS011;64868;45.710;9.590;2023-07-29T14:59:49;10.45;;;4.57;;
72949;SDS011;64868;45.710;9.590;2023-07-29T15:02:19;9.23;;;3.53;;
72949;SDS011;64868;45.710;9.590;2023-07-29T15:04:50;9.57;;;3.28;;
72949;SDS011;64868;45.710;9.590;2023-07-29T15:07:17;6.85;;;3.25;;
72949;SDS011;64868;45.710;9.590;2023-07-29T15:09:45;7.82;;;3.13;;
72949;SDS011;64868;45.710;9.590;2023-07-29T15:12:13;8.55;;;2.95;;
72949;SDS011;64868;45.710;9.590;2023-07-29T15:14:43;7.85;;;3.08;;